createdAt,value
2018-03-11T00:00:49.500Z,974.29
2018-03-11T00:01:49.732Z,974.26
2018-03-11T00:02:49.961Z,974.25
2018-03-11T00:03:50.187Z,974.28
2018-03-11T00:04:50.416Z,974.28
2018-03-11T00:05:50.643Z,974.28
2018-03-11T00:06:50.875Z,974.29
2018-03-11T00:07:51.101Z,974.30
2018-03-11T00:08:51.344Z,974.30
2018-03-11T00:09:51.573Z,974.24
2018-03-11T00:10:51.805Z,974.30
2018-03-11T00:11:52.030Z,974.30
2018-03-11T00:12:52.254Z,974.29
2018-03-11T00:13:52.481Z,974.28
2018-03-11T00:14:52.718Z,974.26
2018-03-11T00:15:52.938Z,974.27
2018-03-11T00:16:53.176Z,974.27
2018-03-11T00:17:53.398Z,974.21
2018-03-11T00:18:53.620Z,974.23
2018-03-11T00:19:53.849Z,974.17
2018-03-11T00:20:54.088Z,974.19
2018-03-11T00:21:54.317Z,974.21
2018-03-11T00:22:54.566Z,974.17
2018-03-11T00:23:54.762Z,974.18
2018-03-11T00:24:54.989Z,974.24
2018-03-11T00:25:55.218Z,974.21
2018-03-11T00:26:55.457Z,974.21
2018-03-11T00:27:55.690Z,974.29
2018-03-11T00:28:55.929Z,974.23
2018-03-11T00:29:56.136Z,974.25
2018-03-11T00:30:56.436Z,974.18
2018-03-11T00:31:56.663Z,974.20
2018-03-11T00:32:56.895Z,974.19
2018-03-11T00:33:57.120Z,974.19
2018-03-11T00:34:57.349Z,974.22
2018-03-11T00:35:57.578Z,974.19
2018-03-11T00:36:57.805Z,974.20
2018-03-11T00:37:58.032Z,974.21
2018-03-11T00:38:58.262Z,974.19
2018-03-11T00:39:58.492Z,974.23
2018-03-11T00:40:58.716Z,974.23
2018-03-11T00:41:58.947Z,974.22
2018-03-11T00:42:59.175Z,974.23
2018-03-11T00:43:59.408Z,974.24
2018-03-11T00:44:59.632Z,974.24
2018-03-11T00:45:59.861Z,974.20
2018-03-11T00:47:00.085Z,974.22
2018-03-11T00:48:00.318Z,974.20
2018-03-11T00:49:00.546Z,974.18
2018-03-11T00:50:00.777Z,974.19
2018-03-11T00:51:00.991Z,974.19
2018-03-11T00:52:01.225Z,974.19
2018-03-11T00:53:01.454Z,974.20
2018-03-11T00:54:01.685Z,974.18
2018-03-11T00:55:01.936Z,974.20
2018-03-11T00:56:02.153Z,974.17
2018-03-11T00:57:02.386Z,974.16
2018-03-11T00:58:02.615Z,974.12
2018-03-11T00:59:02.851Z,974.15
2018-03-11T01:00:03.081Z,974.13
2018-03-11T01:01:03.308Z,974.14
2018-03-11T01:02:03.537Z,974.12
2018-03-11T01:03:03.767Z,974.13
2018-03-11T01:04:04.012Z,974.13
2018-03-11T01:05:04.238Z,974.12
2018-03-11T01:06:04.468Z,974.12
2018-03-11T01:07:04.685Z,974.07
2018-03-11T01:08:04.921Z,974.15
2018-03-11T01:09:05.146Z,974.14
2018-03-11T01:10:05.382Z,974.12
2018-03-11T01:11:05.607Z,974.14
2018-03-11T01:12:05.863Z,974.11
2018-03-11T01:13:06.053Z,974.13
2018-03-11T01:14:06.280Z,974.12
2018-03-11T01:15:06.550Z,974.15
2018-03-11T01:16:06.735Z,974.11
2018-03-11T01:17:06.968Z,974.10
2018-03-11T01:18:07.196Z,974.10
2018-03-11T01:19:07.432Z,974.03
2018-03-11T01:20:07.641Z,974.05
2018-03-11T01:21:07.877Z,974.02
2018-03-11T01:22:08.106Z,974.02
2018-03-11T01:23:08.340Z,974.01
2018-03-11T01:24:08.568Z,973.95
2018-03-11T01:25:08.798Z,973.94
2018-03-11T01:26:09.016Z,973.93
2018-03-11T01:27:09.249Z,973.93
2018-03-11T01:28:09.475Z,973.92
2018-03-11T01:29:09.710Z,973.93
2018-03-11T01:30:09.946Z,973.93
2018-03-11T01:31:10.154Z,973.89
2018-03-11T01:32:10.381Z,973.87
2018-03-11T01:33:10.606Z,973.85
2018-03-11T01:34:10.835Z,973.86
2018-03-11T01:35:11.062Z,973.86
2018-03-11T01:36:11.297Z,973.86
2018-03-11T01:37:11.525Z,973.79
2018-03-11T01:38:11.754Z,973.83
2018-03-11T01:39:11.976Z,973.84
2018-03-11T01:40:12.207Z,973.84
2018-03-11T01:41:12.432Z,973.89
2018-03-11T01:42:12.666Z,973.82
2018-03-11T01:43:12.894Z,973.81
2018-03-11T01:44:13.126Z,973.81
2018-03-11T01:45:13.346Z,973.78
2018-03-11T01:46:13.576Z,973.77
2018-03-11T01:47:13.808Z,973.78
2018-03-11T01:48:14.043Z,973.77
2018-03-11T01:49:14.269Z,973.79
2018-03-11T01:50:14.498Z,973.77
2018-03-11T01:51:14.716Z,973.80
2018-03-11T01:52:14.948Z,973.78
2018-03-11T01:53:15.177Z,973.79
2018-03-11T01:54:15.411Z,973.80
2018-03-11T01:55:15.640Z,973.83
2018-03-11T01:56:15.873Z,973.80
2018-03-11T01:57:16.093Z,973.78
2018-03-11T01:58:16.321Z,973.71
2018-03-11T01:59:16.546Z,973.70
2018-03-11T02:00:16.787Z,973.65
2018-03-11T02:01:17.022Z,973.59
2018-03-11T02:02:17.248Z,973.62
2018-03-11T02:03:17.479Z,973.59
2018-03-11T02:04:17.705Z,973.60
2018-03-11T02:05:17.934Z,973.60
2018-03-11T02:06:18.162Z,973.58
2018-03-11T02:07:18.396Z,973.54
2018-03-11T02:08:18.617Z,973.50
2018-03-11T02:09:18.850Z,973.48
2018-03-11T02:10:19.075Z,973.45
2018-03-11T02:11:19.304Z,973.43
2018-03-11T02:12:19.533Z,973.44
2018-03-11T02:13:19.761Z,973.40
2018-03-11T02:14:19.988Z,973.39
2018-03-11T02:15:20.226Z,973.37
2018-03-11T02:16:20.437Z,973.35
2018-03-11T02:17:20.666Z,973.36
2018-03-11T02:18:20.900Z,973.40
2018-03-11T02:19:21.128Z,973.35
2018-03-11T02:20:21.363Z,973.33
2018-03-11T02:21:21.583Z,973.27
2018-03-11T02:22:21.811Z,973.29
2018-03-11T02:23:22.040Z,973.24
2018-03-11T02:24:22.273Z,973.26
2018-03-11T02:25:22.504Z,973.22
2018-03-11T02:26:22.733Z,973.22
2018-03-11T02:27:22.962Z,973.22
2018-03-11T02:28:23.186Z,973.20
2018-03-11T02:29:23.419Z,973.21
2018-03-11T02:30:23.647Z,973.18
2018-03-11T02:31:23.877Z,973.21
2018-03-11T02:32:24.105Z,973.18
2018-03-11T02:33:24.330Z,973.17
2018-03-11T02:34:24.559Z,973.17
2018-03-11T02:35:24.787Z,973.20
2018-03-11T02:36:25.019Z,973.18
2018-03-11T02:37:25.257Z,973.21
2018-03-11T02:38:25.478Z,973.13
2018-03-11T02:39:25.694Z,973.12
2018-03-11T02:40:25.928Z,973.08
2018-03-11T02:41:26.156Z,973.12
2018-03-11T02:42:26.391Z,973.10
2018-03-11T02:43:26.620Z,973.10
2018-03-11T02:44:26.871Z,973.06
2018-03-11T02:45:27.074Z,973.04
2018-03-11T02:46:27.302Z,973.04
2018-03-11T02:47:27.530Z,973.01
2018-03-11T02:48:27.765Z,973.03
2018-03-11T02:49:27.992Z,972.99
2018-03-11T02:50:28.230Z,972.99
2018-03-11T02:51:28.448Z,972.99
2018-03-11T02:52:28.676Z,972.94
2018-03-11T02:53:28.901Z,972.91
2018-03-11T02:54:29.122Z,972.93
2018-03-11T02:55:29.353Z,972.86
2018-03-11T02:56:29.579Z,972.92
2018-03-11T02:57:29.806Z,972.95
2018-03-11T02:58:30.037Z,972.93
2018-03-11T02:59:30.265Z,972.93
2018-03-11T03:00:30.497Z,972.91
2018-03-11T03:01:30.729Z,972.82
2018-03-11T03:02:30.966Z,972.78
2018-03-11T03:03:31.182Z,972.80
2018-03-11T03:04:31.416Z,972.73
2018-03-11T03:05:31.644Z,972.70
2018-03-11T03:06:31.881Z,972.72
2018-03-11T03:07:32.110Z,972.78
2018-03-11T03:08:32.343Z,972.78
2018-03-11T03:09:32.561Z,972.79
2018-03-11T03:10:32.795Z,972.74
2018-03-11T03:11:33.025Z,972.72
2018-03-11T03:12:33.257Z,972.70
2018-03-11T03:13:33.473Z,972.66
2018-03-11T03:14:33.702Z,972.64
2018-03-11T03:15:33.930Z,972.68
2018-03-11T03:16:34.174Z,972.68
2018-03-11T03:17:34.398Z,972.63
2018-03-11T03:18:34.626Z,972.65
2018-03-11T03:19:34.855Z,972.65
2018-03-11T03:20:35.083Z,972.63
2018-03-11T03:21:35.307Z,972.66
2018-03-11T03:22:35.538Z,972.66
2018-03-11T03:23:35.765Z,972.63
2018-03-11T03:24:36.009Z,972.58
2018-03-11T03:25:36.218Z,972.54
2018-03-11T03:26:36.471Z,972.51
2018-03-11T03:27:36.657Z,972.48
2018-03-11T03:28:36.928Z,972.50
2018-03-11T03:29:37.095Z,972.50
2018-03-11T03:30:37.324Z,972.47
2018-03-11T03:31:37.556Z,972.46
2018-03-11T03:32:37.793Z,972.43
2018-03-11T03:33:38.022Z,972.41
2018-03-11T03:34:38.253Z,972.42
2018-03-11T03:35:38.469Z,972.37
2018-03-11T03:36:38.706Z,972.34
2018-03-11T03:37:38.935Z,972.35
2018-03-11T03:38:39.165Z,972.29
2018-03-11T03:39:39.393Z,972.26
2018-03-11T03:40:39.626Z,972.29
2018-03-11T03:41:39.845Z,972.28
2018-03-11T03:42:40.072Z,972.32
2018-03-11T03:43:40.301Z,972.34
2018-03-11T03:44:40.540Z,972.36
2018-03-11T03:45:40.768Z,972.39
2018-03-11T03:46:40.995Z,972.37
2018-03-11T03:47:41.225Z,972.33
2018-03-11T03:48:41.455Z,972.30
2018-03-11T03:49:41.683Z,972.30
2018-03-11T03:50:41.912Z,972.29
2018-03-11T03:51:42.140Z,972.32
2018-03-11T03:52:42.367Z,972.30
2018-03-11T03:53:42.593Z,972.33
2018-03-11T03:54:42.818Z,972.28
2018-03-11T03:55:43.047Z,972.27
2018-03-11T03:56:43.281Z,972.23
2018-03-11T03:57:43.510Z,972.22
2018-03-11T03:58:43.739Z,972.22
2018-03-11T03:59:44.023Z,972.32
2018-03-11T04:00:44.218Z,972.36
2018-03-11T04:01:44.453Z,972.39
2018-03-11T04:02:44.658Z,972.39
2018-03-11T04:03:44.886Z,972.36
2018-03-11T04:04:45.116Z,972.38
2018-03-11T04:05:45.346Z,972.28
2018-03-11T04:06:45.571Z,972.26
2018-03-11T04:07:45.801Z,972.23
2018-03-11T04:08:46.035Z,972.18
2018-03-11T04:09:46.258Z,972.14
2018-03-11T04:10:46.488Z,972.13
2018-03-11T04:11:46.712Z,972.11
2018-03-11T04:12:46.941Z,972.07
2018-03-11T04:13:47.170Z,972.08
2018-03-11T04:14:47.398Z,972.08
2018-03-11T04:15:47.628Z,972.11
2018-03-11T04:16:47.865Z,972.10
2018-03-11T04:17:48.079Z,972.10
2018-03-11T04:18:48.311Z,972.11
2018-03-11T04:19:48.536Z,972.11
2018-03-11T04:20:48.771Z,972.12
2018-03-11T04:21:48.999Z,972.12
2018-03-11T04:22:49.228Z,972.10
2018-03-11T04:23:49.457Z,972.13
2018-03-11T04:24:49.685Z,972.12
2018-03-11T04:25:49.914Z,972.18
2018-03-11T04:26:50.140Z,972.13
2018-03-11T04:27:50.380Z,972.15
2018-03-11T04:28:50.592Z,972.15
2018-03-11T04:29:50.821Z,972.16
2018-03-11T04:30:51.052Z,972.13
2018-03-11T04:31:51.283Z,972.10
2018-03-11T04:32:51.518Z,972.11
2018-03-11T04:33:51.742Z,972.11
2018-03-11T04:34:51.972Z,972.13
2018-03-11T04:35:52.196Z,972.15
2018-03-11T04:36:52.424Z,972.12
2018-03-11T04:37:52.651Z,972.07
2018-03-11T04:38:52.888Z,972.07
2018-03-11T04:39:53.111Z,972.04
2018-03-11T04:40:53.345Z,972.06
2018-03-11T04:41:53.565Z,972.05
2018-03-11T04:42:53.798Z,972.04
2018-03-11T04:43:54.023Z,972.06
2018-03-11T04:44:54.258Z,972.03
2018-03-11T04:45:54.489Z,972.02
2018-03-11T04:46:54.719Z,972.03
2018-03-11T04:47:54.939Z,972.05
2018-03-11T04:48:55.167Z,972.09
2018-03-11T04:49:55.395Z,972.08
2018-03-11T04:50:55.631Z,972.12
2018-03-11T04:51:55.859Z,972.15
2018-03-11T04:52:56.091Z,972.14
2018-03-11T04:53:56.311Z,972.17
2018-03-11T04:54:56.541Z,972.18
2018-03-11T04:55:56.769Z,972.17
2018-03-11T04:56:57.004Z,972.17
2018-03-11T04:57:57.233Z,972.17
2018-03-11T04:58:57.462Z,972.22
2018-03-11T04:59:57.685Z,972.18
2018-03-11T05:00:57.915Z,972.17
2018-03-11T05:01:58.142Z,972.18
2018-03-11T05:02:58.380Z,972.19
2018-03-11T05:03:58.604Z,972.19
2018-03-11T05:04:58.834Z,972.17
2018-03-11T05:05:59.060Z,972.14
2018-03-11T05:06:59.294Z,972.14
2018-03-11T05:07:59.523Z,972.13
2018-03-11T05:08:59.753Z,972.12
2018-03-11T05:09:59.980Z,972.10
2018-03-11T05:11:00.207Z,972.16
2018-03-11T05:12:00.436Z,972.16
2018-03-11T05:13:00.664Z,972.15
2018-03-11T05:14:00.890Z,972.16
2018-03-11T05:15:01.125Z,972.14
2018-03-11T05:16:01.356Z,972.08
2018-03-11T05:17:01.585Z,972.05
2018-03-11T05:18:01.808Z,972.05
2018-03-11T05:19:02.037Z,972.04
2018-03-11T05:20:02.265Z,971.97
2018-03-11T05:21:02.495Z,971.94
2018-03-11T05:22:02.722Z,971.92
2018-03-11T05:23:02.952Z,971.91
2018-03-11T05:24:03.175Z,971.89
2018-03-11T05:25:03.395Z,971.92
2018-03-11T05:26:03.634Z,971.92
2018-03-11T05:27:03.864Z,971.89
2018-03-11T05:28:04.096Z,971.92
2018-03-11T05:29:04.347Z,971.91
2018-03-11T05:30:04.578Z,971.93
2018-03-11T05:31:04.811Z,971.95
2018-03-11T05:32:05.042Z,971.97
2018-03-11T05:33:05.266Z,971.96
2018-03-11T05:34:05.496Z,971.94
2018-03-11T05:35:05.726Z,971.94
2018-03-11T05:36:05.954Z,971.99
2018-03-11T05:37:06.189Z,971.96
2018-03-11T05:38:06.415Z,972.01
2018-03-11T05:39:06.645Z,972.03
2018-03-11T05:40:06.869Z,972.03
2018-03-11T05:41:07.146Z,972.05
2018-03-11T05:42:07.362Z,971.98
2018-03-11T05:43:07.594Z,971.99
2018-03-11T05:44:07.816Z,972.02
2018-03-11T05:45:08.045Z,972.00
2018-03-11T05:46:08.274Z,971.95
2018-03-11T05:47:08.511Z,971.93
2018-03-11T05:48:08.741Z,971.88
2018-03-11T05:49:08.966Z,971.81
2018-03-11T05:50:09.198Z,971.79
2018-03-11T05:51:09.428Z,971.77
2018-03-11T05:52:09.681Z,971.75
2018-03-11T05:53:09.882Z,971.68
2018-03-11T05:54:10.110Z,971.66
2018-03-11T05:55:10.339Z,971.67
2018-03-11T05:56:10.555Z,971.71
2018-03-11T05:57:10.791Z,971.72
2018-03-11T05:58:11.021Z,971.70
2018-03-11T05:59:11.253Z,971.70
2018-03-11T06:00:11.480Z,971.72
2018-03-11T06:01:11.743Z,971.69
2018-03-11T06:02:11.923Z,971.68
2018-03-11T06:03:12.144Z,971.68
2018-03-11T06:04:12.373Z,971.63
2018-03-11T06:05:12.602Z,971.60
2018-03-11T06:06:12.840Z,971.57
2018-03-11T06:07:13.069Z,971.61
2018-03-11T06:08:13.295Z,971.67
2018-03-11T06:09:13.526Z,971.71
2018-03-11T06:10:13.755Z,971.77
2018-03-11T06:11:13.983Z,971.74
2018-03-11T06:12:14.271Z,971.75
2018-03-11T06:13:14.497Z,971.76
2018-03-11T06:14:14.734Z,971.71
2018-03-11T06:15:14.963Z,971.66
2018-03-11T06:16:15.193Z,971.68
2018-03-11T06:17:15.412Z,971.64
2018-03-11T06:18:15.645Z,971.62
2018-03-11T06:19:15.877Z,971.56
2018-03-11T06:20:16.109Z,971.52
2018-03-11T06:21:16.334Z,971.53
2018-03-11T06:22:16.564Z,971.49
2018-03-11T06:23:16.793Z,971.52
2018-03-11T06:24:17.018Z,971.47
2018-03-11T06:25:17.247Z,971.53
2018-03-11T06:26:17.479Z,971.50
2018-03-11T06:27:17.710Z,971.52
2018-03-11T06:28:17.938Z,971.55
2018-03-11T06:29:18.168Z,971.54
2018-03-11T06:30:18.399Z,971.56
2018-03-11T06:31:18.626Z,971.47
2018-03-11T06:32:18.868Z,971.40
2018-03-11T06:33:19.101Z,971.31
2018-03-11T06:34:19.319Z,971.29
2018-03-11T06:35:19.546Z,971.29
2018-03-11T06:36:19.777Z,971.26
2018-03-11T06:37:20.015Z,971.25
2018-03-11T06:38:20.241Z,971.28
2018-03-11T06:39:20.471Z,971.24
2018-03-11T06:40:20.691Z,971.24
2018-03-11T06:41:20.921Z,971.21
2018-03-11T06:42:21.148Z,971.17
2018-03-11T06:43:21.384Z,971.25
2018-03-11T06:44:21.614Z,971.22
2018-03-11T06:45:21.842Z,971.22
2018-03-11T06:46:22.066Z,971.19
2018-03-11T06:47:22.294Z,971.14
2018-03-11T06:48:22.523Z,971.09
2018-03-11T06:49:22.758Z,971.07
2018-03-11T06:50:22.991Z,971.04
2018-03-11T06:51:23.216Z,970.97
2018-03-11T06:52:23.437Z,970.97
2018-03-11T06:53:23.666Z,970.98
2018-03-11T06:54:23.895Z,970.92
2018-03-11T06:55:24.129Z,970.96
2018-03-11T06:56:24.357Z,970.94
2018-03-11T06:57:24.587Z,970.95
2018-03-11T06:58:24.819Z,970.92
2018-03-11T06:59:25.047Z,970.88
2018-03-11T07:00:25.273Z,970.81
2018-03-11T07:01:25.504Z,970.81
2018-03-11T07:02:25.729Z,970.80
2018-03-11T07:03:25.959Z,970.78
2018-03-11T07:04:26.193Z,970.78
2018-03-11T07:05:26.420Z,970.80
2018-03-11T07:06:26.642Z,970.80
2018-03-11T07:07:26.879Z,970.82
2018-03-11T07:08:27.112Z,970.77
2018-03-11T07:09:27.334Z,970.75
2018-03-11T07:10:27.566Z,970.71
2018-03-11T07:11:27.799Z,970.69
2018-03-11T07:12:28.034Z,970.74
2018-03-11T07:13:28.265Z,970.73
2018-03-11T07:14:28.524Z,970.74
2018-03-11T07:15:28.747Z,970.71
2018-03-11T07:16:28.982Z,970.74
2018-03-11T07:17:29.210Z,970.72
2018-03-11T07:18:29.441Z,970.75
2018-03-11T07:19:29.664Z,970.75
2018-03-11T07:20:29.893Z,970.75
2018-03-11T07:21:30.122Z,970.76
2018-03-11T07:22:30.357Z,970.72
2018-03-11T07:23:30.584Z,970.64
2018-03-11T07:24:30.817Z,970.67
2018-03-11T07:25:31.036Z,970.69
2018-03-11T07:26:31.266Z,970.64
2018-03-11T07:27:31.494Z,970.62
2018-03-11T07:28:31.729Z,970.65
2018-03-11T07:29:31.956Z,970.60
2018-03-11T07:30:32.186Z,970.61
2018-03-11T07:31:32.410Z,970.59
2018-03-11T07:32:32.637Z,970.59
2018-03-11T07:33:32.867Z,970.60
2018-03-11T07:34:33.099Z,970.59
2018-03-11T07:35:33.328Z,970.59
2018-03-11T07:36:33.558Z,970.58
2018-03-11T07:37:33.779Z,970.56
2018-03-11T07:38:34.009Z,970.55
2018-03-11T07:39:34.237Z,970.52
2018-03-11T07:40:34.472Z,970.49
2018-03-11T07:41:34.701Z,970.47
2018-03-11T07:42:34.933Z,970.44
2018-03-11T07:43:35.157Z,970.41
2018-03-11T07:44:35.386Z,970.37
2018-03-11T07:45:35.615Z,970.35
2018-03-11T07:46:35.849Z,970.27
2018-03-11T07:47:36.073Z,970.28
2018-03-11T07:48:36.303Z,970.30
2018-03-11T07:49:36.529Z,970.32
2018-03-11T07:50:36.757Z,970.30
2018-03-11T07:51:36.986Z,970.33
2018-03-11T07:52:37.216Z,970.37
2018-03-11T07:53:37.447Z,970.43
2018-03-11T07:54:37.679Z,970.43
2018-03-11T07:55:37.905Z,970.42
2018-03-11T07:56:38.134Z,970.43
2018-03-11T07:57:38.363Z,970.46
2018-03-11T07:58:38.590Z,970.53
2018-03-11T07:59:38.820Z,970.48
2018-03-11T08:00:39.052Z,970.46
2018-03-11T08:01:39.280Z,970.47
2018-03-11T08:02:39.512Z,970.44
2018-03-11T08:03:39.748Z,970.47
2018-03-11T08:04:39.983Z,970.49
2018-03-11T08:05:40.208Z,970.53
2018-03-11T08:06:40.432Z,970.54
2018-03-11T08:07:40.659Z,970.56
2018-03-11T08:08:40.892Z,970.57
2018-03-11T08:09:41.121Z,970.56
2018-03-11T08:10:41.351Z,970.54
2018-03-11T08:11:41.580Z,970.52
2018-03-11T08:12:41.800Z,970.53
2018-03-11T08:13:42.030Z,970.58
2018-03-11T08:14:42.260Z,970.63
2018-03-11T08:15:42.500Z,970.68
2018-03-11T08:16:42.718Z,970.68
2018-03-11T08:17:42.952Z,970.67
2018-03-11T08:18:43.173Z,970.76
2018-03-11T08:19:43.399Z,970.78
2018-03-11T08:20:43.628Z,970.78
2018-03-11T08:21:43.865Z,970.80
2018-03-11T08:22:44.094Z,970.77
2018-03-11T08:23:44.325Z,970.82
2018-03-11T08:24:44.548Z,970.80
2018-03-11T08:25:44.797Z,970.83
2018-03-11T08:26:45.028Z,970.83
2018-03-11T08:27:45.253Z,970.91
2018-03-11T08:28:45.486Z,970.93
2018-03-11T08:29:45.709Z,970.96
2018-03-11T08:30:45.937Z,970.96
2018-03-11T08:31:46.166Z,970.89
2018-03-11T08:32:46.400Z,970.90
2018-03-11T08:33:46.629Z,970.89
2018-03-11T08:34:46.873Z,970.81
2018-03-11T08:35:47.102Z,970.83
2018-03-11T08:36:47.331Z,970.80
2018-03-11T08:37:47.561Z,970.78
2018-03-11T08:38:47.789Z,970.78
2018-03-11T08:39:48.019Z,970.78
2018-03-11T08:40:48.239Z,970.76
2018-03-11T08:41:48.468Z,970.71
2018-03-11T08:42:48.778Z,970.79
2018-03-11T08:43:48.935Z,970.85
2018-03-11T08:44:49.164Z,970.85
2018-03-11T08:45:49.391Z,970.84
2018-03-11T08:46:49.690Z,970.90
2018-03-11T08:47:49.845Z,970.91
2018-03-11T08:48:50.071Z,970.91
2018-03-11T08:49:50.306Z,970.96
2018-03-11T08:50:50.533Z,970.95
2018-03-11T08:51:50.770Z,970.95
2018-03-11T08:52:50.986Z,970.96
2018-03-11T08:53:51.286Z,970.94
2018-03-11T08:54:51.447Z,970.95
2018-03-11T08:55:51.697Z,970.94
2018-03-11T08:56:51.912Z,970.97
2018-03-11T08:57:52.143Z,971.00
2018-03-11T08:58:52.356Z,971.04
2018-03-11T08:59:52.595Z,971.00
2018-03-11T09:00:52.818Z,970.96
2018-03-11T09:01:53.049Z,970.93
2018-03-11T09:02:53.278Z,970.91
2018-03-11T09:03:53.535Z,970.88
2018-03-11T09:04:53.730Z,970.87
2018-03-11T09:05:53.957Z,970.91
2018-03-11T09:06:54.182Z,970.82
2018-03-11T09:07:54.421Z,970.88
2018-03-11T09:08:54.649Z,970.86
2018-03-11T09:09:54.886Z,970.84
2018-03-11T09:10:55.099Z,970.84
2018-03-11T09:11:55.329Z,970.77
2018-03-11T09:12:55.555Z,970.76
2018-03-11T09:13:55.799Z,970.79
2018-03-11T09:14:56.018Z,970.75
2018-03-11T09:15:56.254Z,970.75
2018-03-11T09:16:56.470Z,970.75
2018-03-11T09:17:56.701Z,970.68
2018-03-11T09:18:56.932Z,970.65
2018-03-11T09:19:57.168Z,970.57
2018-03-11T09:20:57.396Z,970.55
2018-03-11T09:21:57.625Z,970.49
2018-03-11T09:22:57.844Z,970.49
2018-03-11T09:23:58.077Z,970.50
2018-03-11T09:24:58.306Z,970.49
2018-03-11T09:25:58.540Z,970.48
2018-03-11T09:26:58.769Z,970.43
2018-03-11T09:27:59.000Z,970.42
2018-03-11T09:28:59.223Z,970.35
2018-03-11T09:29:59.451Z,970.35
2018-03-11T09:30:59.679Z,970.34
2018-03-11T09:31:59.910Z,970.37
2018-03-11T09:33:00.140Z,970.35
2018-03-11T09:34:00.369Z,970.38
2018-03-11T09:35:00.593Z,970.33
2018-03-11T09:36:00.820Z,970.32
2018-03-11T09:37:01.054Z,970.29
2018-03-11T09:38:01.282Z,970.27
2018-03-11T09:39:01.511Z,970.19
2018-03-11T09:40:01.733Z,970.16
2018-03-11T09:41:01.963Z,970.11
2018-03-11T09:42:02.192Z,970.10
2018-03-11T09:43:02.420Z,970.10
2018-03-11T09:44:02.656Z,970.10
2018-03-11T09:45:02.884Z,970.10
2018-03-11T09:46:03.114Z,970.07
2018-03-11T09:47:03.335Z,970.03
2018-03-11T09:48:03.576Z,970.02
2018-03-11T09:49:03.804Z,970.03
2018-03-11T09:50:04.031Z,970.04
2018-03-11T09:51:04.260Z,970.06
2018-03-11T09:52:04.490Z,970.05
2018-03-11T09:53:04.717Z,970.00
2018-03-11T09:54:04.949Z,969.98
2018-03-11T09:55:05.167Z,969.97
2018-03-11T09:56:05.400Z,969.98
2018-03-11T09:57:05.636Z,969.94
2018-03-11T09:58:05.858Z,969.92
2018-03-11T09:59:06.087Z,969.92
2018-03-11T10:00:06.313Z,969.92
2018-03-11T10:01:06.579Z,969.91
2018-03-11T10:02:06.807Z,969.88
2018-03-11T10:03:07.067Z,969.93
2018-03-11T10:04:07.257Z,969.91
2018-03-11T10:05:07.487Z,969.90
2018-03-11T10:06:07.725Z,969.90
2018-03-11T10:07:07.943Z,969.89
2018-03-11T10:08:08.172Z,969.86
2018-03-11T10:09:08.395Z,969.86
2018-03-11T10:10:08.628Z,969.84
2018-03-11T10:11:08.859Z,969.80
2018-03-11T10:12:09.092Z,969.78
2018-03-11T10:13:09.321Z,969.76
2018-03-11T10:14:09.554Z,969.75
2018-03-11T10:15:09.774Z,969.74
2018-03-11T10:16:10.004Z,969.77
2018-03-11T10:17:10.234Z,969.75
2018-03-11T10:18:10.466Z,969.78
2018-03-11T10:19:10.695Z,969.78
2018-03-11T10:20:10.952Z,969.80
2018-03-11T10:21:11.182Z,969.78
2018-03-11T10:22:11.415Z,969.80
2018-03-11T10:23:11.643Z,969.79
2018-03-11T10:24:11.877Z,969.83
2018-03-11T10:25:12.100Z,969.79
2018-03-11T10:26:12.329Z,969.82
2018-03-11T10:27:12.557Z,969.81
2018-03-11T10:28:12.788Z,969.78
2018-03-11T10:29:13.017Z,969.78
2018-03-11T10:30:13.246Z,969.80
2018-03-11T10:31:13.470Z,969.79
2018-03-11T10:32:13.699Z,969.81
2018-03-11T10:33:13.934Z,969.81
2018-03-11T10:34:14.161Z,969.84
2018-03-11T10:35:14.406Z,969.82
2018-03-11T10:36:14.629Z,969.81
2018-03-11T10:37:14.859Z,969.84
2018-03-11T10:38:15.127Z,969.85
2018-03-11T10:39:15.296Z,969.83
2018-03-11T10:40:15.531Z,969.78
2018-03-11T10:41:15.760Z,969.77
2018-03-11T10:42:15.990Z,969.74
2018-03-11T10:43:16.213Z,969.74
2018-03-11T10:44:16.442Z,969.77
2018-03-11T10:45:16.672Z,969.79
2018-03-11T10:46:16.905Z,969.76
2018-03-11T10:47:17.131Z,969.76
2018-03-11T10:48:17.362Z,969.73
2018-03-11T10:49:17.584Z,969.73
2018-03-11T10:50:17.813Z,969.71
2018-03-11T10:51:18.042Z,969.67
2018-03-11T10:52:18.282Z,969.68
2018-03-11T10:53:18.503Z,969.65
2018-03-11T10:54:18.736Z,969.66
2018-03-11T10:55:18.959Z,969.65
2018-03-11T10:56:19.183Z,969.63
2018-03-11T10:57:19.412Z,969.63
2018-03-11T10:58:19.650Z,969.58
2018-03-11T10:59:19.876Z,969.61
2018-03-11T11:00:20.107Z,969.66
2018-03-11T11:01:20.330Z,969.69
2018-03-11T11:02:20.561Z,969.71
2018-03-11T11:03:20.790Z,969.75
2018-03-11T11:04:21.021Z,969.77
2018-03-11T11:05:21.251Z,969.79
2018-03-11T11:06:21.484Z,969.75
2018-03-11T11:07:21.705Z,969.69
2018-03-11T11:08:21.935Z,969.68
2018-03-11T11:09:22.162Z,969.64
2018-03-11T11:10:22.397Z,969.63
2018-03-11T11:11:22.626Z,969.64
2018-03-11T11:12:22.852Z,969.64
2018-03-11T11:13:23.079Z,969.61
2018-03-11T11:14:23.317Z,969.66
2018-03-11T11:15:23.552Z,969.69
2018-03-11T11:16:23.781Z,969.68
2018-03-11T11:17:24.012Z,969.60
2018-03-11T11:18:24.230Z,969.58
2018-03-11T11:19:24.462Z,969.53
2018-03-11T11:20:24.691Z,969.53
2018-03-11T11:21:24.927Z,969.46
2018-03-11T11:22:25.155Z,969.41
2018-03-11T11:23:25.384Z,969.43
2018-03-11T11:24:25.604Z,969.41
2018-03-11T11:25:25.836Z,969.39
2018-03-11T11:26:26.065Z,969.39
2018-03-11T11:27:26.300Z,969.35
2018-03-11T11:28:26.528Z,969.36
2018-03-11T11:29:26.757Z,969.33
2018-03-11T11:30:26.977Z,969.36
2018-03-11T11:31:27.197Z,969.29
2018-03-11T11:32:27.423Z,969.28
2018-03-11T11:33:27.652Z,969.28
2018-03-11T11:34:27.882Z,969.28
2018-03-11T11:35:28.111Z,969.26
2018-03-11T11:36:28.341Z,969.25
2018-03-11T11:37:28.585Z,969.26
2018-03-11T11:38:28.813Z,969.24
2018-03-11T11:39:29.042Z,969.23
2018-03-11T11:40:29.271Z,969.27
2018-03-11T11:41:29.502Z,969.27
2018-03-11T11:42:29.719Z,969.29
2018-03-11T11:43:29.945Z,969.29
2018-03-11T11:44:30.173Z,969.28
2018-03-11T11:45:30.402Z,969.29
2018-03-11T11:46:30.630Z,969.26
2018-03-11T11:47:30.860Z,969.28
2018-03-11T11:48:31.087Z,969.27
2018-03-11T11:49:31.317Z,969.32
2018-03-11T11:50:31.557Z,969.33
2018-03-11T11:51:31.793Z,969.30
2018-03-11T11:52:32.003Z,969.30
2018-03-11T11:53:32.232Z,969.31
2018-03-11T11:54:32.459Z,969.33
2018-03-11T11:55:32.689Z,969.32
2018-03-11T11:56:32.918Z,969.37
2018-03-11T11:57:33.144Z,969.32
2018-03-11T11:58:33.376Z,969.29
2018-03-11T11:59:33.605Z,969.30
2018-03-11T12:00:33.876Z,969.31
2018-03-11T12:01:34.096Z,969.32
2018-03-11T12:02:34.320Z,969.27
2018-03-11T12:03:34.549Z,969.23
2018-03-11T12:04:34.780Z,969.18
2018-03-11T12:05:35.010Z,969.16
2018-03-11T12:06:35.253Z,969.15
2018-03-11T12:07:35.462Z,969.14
2018-03-11T12:08:35.696Z,969.12
2018-03-11T12:09:35.925Z,969.07
2018-03-11T12:10:36.152Z,969.05
2018-03-11T12:11:36.383Z,969.02
2018-03-11T12:12:36.652Z,969.08
2018-03-11T12:13:36.839Z,969.09
2018-03-11T12:14:37.069Z,969.07
2018-03-11T12:15:37.297Z,969.07
2018-03-11T12:16:37.540Z,969.10
2018-03-11T12:17:37.749Z,969.08
2018-03-11T12:18:37.979Z,969.08
2018-03-11T12:19:38.209Z,969.13
2018-03-11T12:20:38.437Z,969.09
2018-03-11T12:21:38.671Z,969.12
2018-03-11T12:22:38.900Z,969.16
2018-03-11T12:23:39.112Z,969.15
2018-03-11T12:24:39.345Z,969.13
2018-03-11T12:25:39.573Z,969.14
2018-03-11T12:26:39.811Z,969.12
2018-03-11T12:27:40.038Z,969.21
2018-03-11T12:28:40.268Z,969.18
2018-03-11T12:29:40.484Z,969.14
2018-03-11T12:30:40.717Z,969.13
2018-03-11T12:31:40.949Z,969.10